Airfield :
LOGIN :

Register | Disclaimer

   EN    FR    IT 

 










Legend :    VFR   Marginal VFR   IFR   Intensive IFR   Very Intensive IFR
Visi :
Ceiling :
>= 8 km
>= 3000ft
5 to 8 km
1000 to 3000 ft
1500m to 5 km
500 to 1000 ft
800 to 1500m
200 to 500 ft
< 800m
< 200 ft
Symbols :   Thunderstorms  Fog  Heavy snow  Heavy precipitations  Wind > 20 kt
SIGMETs :     Misc.  Thunderstorms  Icing  Turbulence  Mountain Waves  Volcanic Ashes







- Airport Elevation : 348 ft
- IATA code : LDV
- Download approach charts


LFRJ - Landivisiau

CURRENT METAR :
  • 112100Z AUTO 17011KT 9999 FEW026/// BKN094/// BKN110/// ///TCU 10/07 Q1017 BECMG BKN009

EXPIRED METARs :
  • 112030Z AUTO 17014KT CAVOK 09/07 Q1017 BECMG BKN009
  • 112000Z AUTO 18012KT 9999 FEW027 BKN096 OVC150 09/07 Q1018 TEMPO 4000 RA BKN004
  • 111930Z AUTO 18011KT 9999 FEW025 BKN098 BKN130 09/07 Q1018 TEMPO 4000 RA BKN004
  • 111900Z AUTO 18012KT 9999 SCT023 SCT110 BKN140 09/07 Q1018 TEMPO 4000 RA BKN004
  • 111830Z AUTO 19016KT 9999 FEW022 BKN140 BKN190 09/07 Q1018 TEMPO 4000 RA BKN004

TAF TAF LFRJ
Valid from the 11 at 21:00 until the 12 at 06:00 UTC


112000Z 1121/1206 18010KT 9999 SCT025
BECMG 1121/1123 BKN009
TEMPO 1123/1206 4000 RA BKN004
No reported NOTAMs for that airfield.



MET'MAP, your aeronautical weather chart ! - Copyright ORBIFLY December 2007 - Disclaimer

ORBIFLY MET'MAP TEAM :

Programming & Development : Alexandra Zaïnal
Concept & Development : Baudouin d'Aumeries
Co-Development & Prog : Marc-Olivier Méhu
Technical & hardware support : Manuel Goepfert

Contact : metmap@orbifly.com




SOURCES & CREDITS :

   NOAA